createdAt,value
2022-12-17T00:00:48.359Z,99961.78
2022-12-17T00:03:34.818Z,99964.97
2022-12-17T00:06:20.526Z,99966.84
2022-12-17T00:09:06.504Z,99951.72
2022-12-17T00:11:52.256Z,99947.97
2022-12-17T00:14:38.059Z,99939.63
2022-12-17T00:17:23.883Z,99943.16
2022-12-17T00:20:09.705Z,99941.94
2022-12-17T00:22:55.482Z,99947.19
2022-12-17T00:25:44.488Z,99936.88
2022-12-17T00:28:32.976Z,99932.81
2022-12-17T00:31:20.865Z,99929.62
2022-12-17T00:34:06.878Z,99924.13
2022-12-17T00:36:52.723Z,99929.12
2022-12-17T00:39:38.292Z,99931.53
2022-12-17T00:42:24.101Z,99921.47
2022-12-17T00:45:09.843Z,99925.44
2022-12-17T00:47:55.683Z,99937.06
2022-12-17T00:50:42.654Z,99947.59
2022-12-17T00:53:28.433Z,99955.56
2022-12-17T00:56:14.431Z,99970.63
2022-12-17T00:59:03.327Z,99984.53
2022-12-17T01:01:49.182Z,100010.09
2022-12-17T01:04:35.391Z,100030.94
2022-12-17T01:07:21.268Z,100033.31
2022-12-17T01:10:07.320Z,100042.38
2022-12-17T01:12:53.125Z,100054.13
2022-12-17T01:15:42.170Z,100049.88
2022-12-17T01:18:27.813Z,100045.84
2022-12-17T01:21:16.442Z,100061.06
2022-12-17T01:24:02.294Z,100064.56
2022-12-17T01:26:48.542Z,100068.84
2022-12-17T01:29:34.432Z,100072.22
2022-12-17T01:32:20.176Z,100086.50
2022-12-17T01:35:05.614Z,100093.75
2022-12-17T01:37:51.442Z,100097.47
2022-12-17T01:40:37.039Z,100092.72
2022-12-17T01:43:27.805Z,100090.00
2022-12-17T01:46:13.590Z,100083.06
2022-12-17T01:49:02.371Z,100087.25
2022-12-17T01:51:48.592Z,100086.97
2022-12-17T01:54:36.286Z,100092.16
2022-12-17T01:57:24.931Z,100077.28
2022-12-17T02:00:25.277Z,100077.28
2022-12-17T02:03:11.419Z,100069.59
2022-12-17T02:06:20.257Z,100084.50
2022-12-17T02:09:40.341Z,100079.59
2022-12-17T02:12:39.343Z,100071.88
2022-12-17T02:15:38.654Z,100070.22
2022-12-17T02:18:34.172Z,100067.78
2022-12-17T02:21:19.918Z,100067.28
2022-12-17T02:24:21.488Z,100055.34
2022-12-17T02:27:14.281Z,100059.00
2022-12-17T02:30:07.832Z,100050.87
2022-12-17T02:32:54.850Z,100056.00
2022-12-17T02:35:53.660Z,100060.50
2022-12-17T02:38:44.880Z,100078.84
2022-12-17T02:41:50.937Z,100091.09
2022-12-17T02:44:37.823Z,100089.50
2022-12-17T02:47:27.461Z,100092.66
2022-12-17T02:50:13.329Z,100099.34
2022-12-17T02:53:04.266Z,100102.91
2022-12-17T02:56:04.155Z,100119.34
2022-12-17T02:58:51.479Z,100118.47
2022-12-17T03:01:37.117Z,100131.22
2022-12-17T03:04:23.631Z,100142.81
2022-12-17T03:07:09.682Z,100136.59
2022-12-17T03:09:56.086Z,100148.69
2022-12-17T03:12:42.436Z,100150.50
2022-12-17T03:15:28.527Z,100146.38
2022-12-17T03:18:13.784Z,100133.75
2022-12-17T03:20:59.945Z,100136.97
2022-12-17T03:23:45.349Z,100126.66
2022-12-17T03:26:31.218Z,100134.66
2022-12-17T03:29:16.705Z,100128.94
2022-12-17T03:32:02.579Z,100141.53
2022-12-17T03:34:48.179Z,100143.81
2022-12-17T03:37:44.921Z,100136.19
2022-12-17T03:40:31.056Z,100143.88
2022-12-17T03:43:16.929Z,100138.44
2022-12-17T03:46:10.991Z,100159.78
2022-12-17T03:49:04.753Z,100175.16
2022-12-17T03:51:50.189Z,100173.34
2022-12-17T03:54:36.191Z,100162.47
2022-12-17T03:57:22.102Z,100161.00
2022-12-17T04:00:08.061Z,100165.25
2022-12-17T04:03:02.609Z,100180.00
2022-12-17T04:05:48.555Z,100166.00
2022-12-17T04:08:34.428Z,100172.84
2022-12-17T04:11:20.364Z,100178.94
2022-12-17T04:14:05.643Z,100174.69
2022-12-17T04:16:51.576Z,100166.56
2022-12-17T04:19:37.149Z,100169.63
2022-12-17T04:22:23.044Z,100164.62
2022-12-17T04:25:08.366Z,100159.06
2022-12-17T04:27:54.442Z,100155.50
2022-12-17T04:30:39.849Z,100175.00
2022-12-17T04:33:25.602Z,100195.53
2022-12-17T04:36:10.959Z,100202.00
2022-12-17T04:38:56.829Z,100203.81
2022-12-17T04:42:02.096Z,100202.81
2022-12-17T04:44:47.896Z,100210.53
2022-12-17T04:47:33.604Z,100213.16
2022-12-17T04:50:19.540Z,100232.16
2022-12-17T04:53:05.211Z,100215.88
2022-12-17T04:55:50.898Z,100220.25
2022-12-17T04:58:36.505Z,100223.13
2022-12-17T05:01:22.327Z,100214.53
2022-12-17T05:04:08.141Z,100211.97
2022-12-17T05:06:53.802Z,100221.44
2022-12-17T05:09:39.337Z,100243.38
2022-12-17T05:12:25.825Z,100251.03
2022-12-17T05:15:11.392Z,100287.69
2022-12-17T05:17:57.305Z,100264.75
2022-12-17T05:20:43.068Z,100240.13
2022-12-17T05:23:29.032Z,100254.69
2022-12-17T05:26:24.990Z,100233.56
2022-12-17T05:29:15.681Z,100240.25
2022-12-17T05:32:02.063Z,100274.22
2022-12-17T05:34:48.444Z,100288.69
2022-12-17T05:37:34.127Z,100301.44
2022-12-17T05:40:19.945Z,100297.91
2022-12-17T05:43:16.452Z,100311.28
2022-12-17T05:46:03.220Z,100314.94
2022-12-17T05:48:49.950Z,100322.59
2022-12-17T05:51:39.038Z,100332.66
2022-12-17T05:54:25.576Z,100313.75
2022-12-17T05:57:11.924Z,100319.72
2022-12-17T05:59:57.699Z,100304.31
2022-12-17T06:02:44.234Z,100325.56
2022-12-17T06:05:30.890Z,100321.72
2022-12-17T06:08:26.823Z,100322.59
2022-12-17T06:11:18.268Z,100319.16
2022-12-17T06:14:05.461Z,100340.41
2022-12-17T06:16:51.419Z,100351.50
2022-12-17T06:19:37.408Z,100357.44
2022-12-17T06:22:23.184Z,100358.31
2022-12-17T06:25:09.103Z,100375.31
2022-12-17T06:27:55.210Z,100377.06
2022-12-17T06:30:40.871Z,100391.66
2022-12-17T06:33:29.321Z,100384.97
2022-12-17T06:36:22.031Z,100385.97
2022-12-17T06:39:09.492Z,100403.97
2022-12-17T06:42:02.052Z,100389.59
2022-12-17T06:44:50.211Z,100391.47
2022-12-17T06:47:35.909Z,100415.28
2022-12-17T06:50:23.125Z,100415.38
2022-12-17T06:53:29.181Z,100398.41
2022-12-17T06:56:18.739Z,100397.72
2022-12-17T06:59:04.610Z,100418.09
2022-12-17T07:01:50.657Z,100416.44
2022-12-17T07:04:36.754Z,100418.22
2022-12-17T07:07:22.454Z,100403.72
2022-12-17T07:10:13.807Z,100406.25
2022-12-17T07:12:59.988Z,100429.34
2022-12-17T07:15:53.455Z,100422.56
2022-12-17T07:18:39.504Z,100431.00
2022-12-17T07:21:24.780Z,100447.16
2022-12-17T07:24:10.799Z,100466.72
2022-12-17T07:27:09.977Z,100461.47
2022-12-17T07:30:09.444Z,100463.94
2022-12-17T07:32:55.422Z,100479.50
2022-12-17T07:35:41.298Z,100482.88
2022-12-17T07:38:27.558Z,100488.81
2022-12-17T07:41:13.842Z,100498.97
2022-12-17T07:43:59.799Z,100498.19
2022-12-17T07:46:46.029Z,100498.97
2022-12-17T07:49:31.580Z,100494.66
2022-12-17T07:52:17.234Z,100499.94
2022-12-17T07:55:02.879Z,100492.16
2022-12-17T07:57:48.909Z,100495.50
2022-12-17T08:00:34.409Z,100512.53
2022-12-17T08:03:20.476Z,100519.31
2022-12-17T08:06:06.340Z,100526.06
2022-12-17T08:08:51.986Z,100526.88
2022-12-17T08:11:37.810Z,100533.50
2022-12-17T08:14:24.115Z,100534.34
2022-12-17T08:17:09.534Z,100536.91
2022-12-17T08:19:56.252Z,100528.31
2022-12-17T08:22:41.913Z,100544.66
2022-12-17T08:25:28.695Z,100548.13
2022-12-17T08:28:49.119Z,100553.16
2022-12-17T08:31:24.653Z,100545.66
2022-12-17T08:34:10.312Z,100551.47
2022-12-17T08:36:56.384Z,100567.50
2022-12-17T08:39:42.231Z,100567.53
2022-12-17T08:42:27.938Z,100566.75
2022-12-17T08:45:13.643Z,100565.87
2022-12-17T08:48:03.809Z,100568.28
2022-12-17T08:50:49.941Z,100571.78
2022-12-17T08:53:43.445Z,100577.97
2022-12-17T08:56:28.862Z,100594.06
2022-12-17T08:59:25.832Z,100603.31
2022-12-17T09:02:11.887Z,100593.06
2022-12-17T09:04:58.113Z,100619.41
2022-12-17T09:07:43.980Z,100603.13
2022-12-17T09:10:30.289Z,100601.47
2022-12-17T09:13:20.657Z,100603.16
2022-12-17T09:16:11.199Z,100607.31
2022-12-17T09:18:56.908Z,100618.34
2022-12-17T09:21:43.614Z,100622.63
2022-12-17T09:24:29.403Z,100621.88
2022-12-17T09:27:15.618Z,100615.03
2022-12-17T09:30:01.505Z,100617.63
2022-12-17T09:32:48.815Z,100610.00
2022-12-17T09:35:34.863Z,100614.13
2022-12-17T09:38:20.588Z,100622.63
2022-12-17T09:41:07.950Z,100633.72
2022-12-17T09:44:09.128Z,100639.66
2022-12-17T09:47:00.298Z,100647.06
2022-12-17T09:49:48.011Z,100652.19
2022-12-17T09:52:47.982Z,100650.25
2022-12-17T09:55:41.992Z,100652.94
2022-12-17T09:58:40.935Z,100666.47
2022-12-17T10:01:36.577Z,100656.19
2022-12-17T10:04:23.982Z,100665.44
2022-12-17T10:07:09.816Z,100660.53
2022-12-17T10:09:56.299Z,100669.06
2022-12-17T10:12:43.119Z,100673.31
2022-12-17T10:15:33.280Z,100669.81
2022-12-17T10:18:26.773Z,100678.81
2022-12-17T10:21:17.832Z,100682.09
2022-12-17T10:24:03.536Z,100683.31
2022-12-17T10:26:52.599Z,100688.37
2022-12-17T10:29:47.714Z,100696.69
2022-12-17T10:32:34.347Z,100696.12
2022-12-17T10:35:26.187Z,100701.03
2022-12-17T10:38:12.577Z,100715.63
2022-12-17T10:40:58.416Z,100719.22
2022-12-17T10:43:52.814Z,100727.69
2022-12-17T10:46:46.552Z,100718.97
2022-12-17T10:49:35.378Z,100728.47
2022-12-17T10:52:25.639Z,100730.16
2022-12-17T10:55:16.523Z,100745.50
2022-12-17T10:58:02.477Z,100752.97
2022-12-17T11:00:51.477Z,100758.72
2022-12-17T11:03:52.691Z,100767.31
2022-12-17T11:06:44.861Z,100778.38
2022-12-17T11:10:03.686Z,100790.38
2022-12-17T11:12:57.573Z,100770.44
2022-12-17T11:15:47.013Z,100784.00
2022-12-17T11:18:37.854Z,100772.25
2022-12-17T11:21:30.717Z,100771.31
2022-12-17T11:24:22.446Z,100768.03
2022-12-17T11:27:10.413Z,100768.53
2022-12-17T11:29:56.419Z,100768.97
2022-12-17T11:32:48.226Z,100774.78
2022-12-17T11:36:06.626Z,100786.88
2022-12-17T11:39:15.217Z,100803.69
2022-12-17T11:42:26.316Z,100813.03
2022-12-17T11:45:28.355Z,100841.25
2022-12-17T11:48:26.091Z,100841.34
2022-12-17T11:51:30.494Z,100856.97
2022-12-17T11:54:41.354Z,100842.53
2022-12-17T11:57:40.339Z,100846.66
2022-12-17T12:00:40.461Z,100862.84
2022-12-17T12:04:05.343Z,100851.69
2022-12-17T12:07:03.006Z,100866.09
2022-12-17T12:09:49.010Z,100878.94
2022-12-17T12:13:14.824Z,100906.53
2022-12-17T12:16:23.936Z,100901.59
2022-12-17T12:19:23.495Z,100874.25
2022-12-17T12:22:30.826Z,100867.50
2022-12-17T12:25:16.769Z,100882.91
2022-12-17T12:28:21.744Z,100888.03
2022-12-17T12:31:25.746Z,100872.72
2022-12-17T12:34:19.471Z,100853.22
2022-12-17T12:37:06.135Z,100865.09
2022-12-17T12:40:17.842Z,100864.25
2022-12-17T12:43:36.949Z,100874.47
2022-12-17T12:46:50.113Z,100874.44
2022-12-17T12:50:00.083Z,100877.72
2022-12-17T12:52:46.660Z,100859.94
2022-12-17T12:55:32.612Z,100870.06
2022-12-17T12:58:20.533Z,100863.97
2022-12-17T13:01:05.939Z,100884.66
2022-12-17T13:03:56.294Z,100895.63
2022-12-17T13:07:00.314Z,100904.28
2022-12-17T13:09:33.907Z,100925.66
2022-12-17T13:12:04.638Z,100909.41
2022-12-17T13:14:59.244Z,100919.47
2022-12-17T13:17:56.118Z,100943.28
2022-12-17T13:20:27.586Z,100958.72
2022-12-17T13:23:16.739Z,100955.34
2022-12-17T13:25:44.255Z,100962.19
2022-12-17T13:28:31.361Z,100975.84
2022-12-17T13:31:05.038Z,100976.63
2022-12-17T13:34:06.182Z,100985.97
2022-12-17T13:36:39.115Z,100980.25
2022-12-17T13:39:30.837Z,100987.09
2022-12-17T13:41:58.343Z,100987.88
2022-12-17T13:44:29.858Z,100998.09
2022-12-17T13:46:57.223Z,101003.13
2022-12-17T13:49:29.981Z,101000.63
2022-12-17T13:52:02.540Z,101014.25
2022-12-17T13:54:32.849Z,101014.41
2022-12-17T13:57:17.321Z,101028.81
2022-12-17T13:59:55.634Z,101034.75
2022-12-17T14:02:34.405Z,101050.94
2022-12-17T14:05:07.891Z,101045.09
2022-12-17T14:07:38.630Z,101026.44
2022-12-17T14:10:17.822Z,101017.91
2022-12-17T14:12:46.085Z,101026.47
2022-12-17T14:15:28.566Z,101023.06
2022-12-17T14:17:56.825Z,101041.84
2022-12-17T14:20:26.831Z,101060.59
2022-12-17T14:22:55.817Z,101055.50
2022-12-17T14:25:25.985Z,101058.94
2022-12-17T14:27:58.706Z,101069.19
2022-12-17T14:30:46.149Z,101087.09
2022-12-17T14:33:25.890Z,101087.09
2022-12-17T14:35:54.666Z,101084.50
2022-12-17T14:38:37.462Z,101089.62
2022-12-17T14:41:32.621Z,101087.09
2022-12-17T14:44:01.493Z,101094.78
2022-12-17T14:46:30.626Z,101096.53
2022-12-17T14:49:03.634Z,101094.84
2022-12-17T14:51:36.796Z,101089.72
2022-12-17T14:54:07.775Z,101098.25
2022-12-17T14:56:35.234Z,101110.16
2022-12-17T14:59:02.528Z,101112.69
2022-12-17T15:01:29.824Z,101116.09
2022-12-17T15:03:57.621Z,101113.56
2022-12-17T15:06:25.175Z,101130.59
2022-12-17T15:08:53.482Z,101130.59
2022-12-17T15:11:22.439Z,101134.00
2022-12-17T15:13:54.627Z,101132.34
2022-12-17T15:16:24.268Z,101155.34
2022-12-17T15:18:51.705Z,101148.50
2022-12-17T15:21:19.721Z,101149.37
2022-12-17T15:23:47.557Z,101148.50
2022-12-17T15:26:15.263Z,101158.72
2022-12-17T15:28:42.933Z,101165.56
2022-12-17T15:31:12.453Z,101157.91
2022-12-17T15:33:40.231Z,101157.03
2022-12-17T15:36:07.599Z,101172.37
2022-12-17T15:38:37.687Z,101188.56
2022-12-17T15:41:26.027Z,101185.13
2022-12-17T15:43:53.414Z,101199.59
2022-12-17T15:46:20.588Z,101199.63
2022-12-17T15:48:50.411Z,101201.31
2022-12-17T15:51:21.018Z,101197.03
2022-12-17T15:53:48.450Z,101208.09
2022-12-17T15:56:20.500Z,101217.50
2022-12-17T15:58:48.505Z,101212.38
2022-12-17T16:01:15.746Z,101212.41
2022-12-17T16:03:43.527Z,101221.75
2022-12-17T16:06:11.230Z,101206.44
2022-12-17T16:08:40.151Z,101210.69
2022-12-17T16:11:09.442Z,101225.16
2022-12-17T16:13:37.637Z,101241.31
2022-12-17T16:16:06.115Z,101231.06
2022-12-17T16:18:33.823Z,101238.75
2022-12-17T16:21:03.401Z,101253.22
2022-12-17T16:23:31.017Z,101251.53
2022-12-17T16:26:00.147Z,101255.72
2022-12-17T16:28:28.177Z,101270.97
2022-12-17T16:31:10.760Z,101283.72
2022-12-17T16:33:39.890Z,101280.25
2022-12-17T16:36:08.495Z,101282.75
2022-12-17T16:38:36.077Z,101296.56
2022-12-17T16:41:03.780Z,101297.44
2022-12-17T16:43:33.867Z,101296.59
2022-12-17T16:46:09.080Z,101289.81
2022-12-17T16:48:39.853Z,101304.37
2022-12-17T16:51:19.015Z,101304.37
2022-12-17T16:53:51.465Z,101308.63
2022-12-17T16:56:24.115Z,101306.06
2022-12-17T16:58:52.558Z,101310.34
2022-12-17T17:01:21.680Z,101324.00
2022-12-17T17:03:49.374Z,101322.25
2022-12-17T17:06:18.190Z,101324.81
2022-12-17T17:08:45.670Z,101318.84
2022-12-17T17:11:14.283Z,101335.03
2022-12-17T17:13:42.295Z,101341.03
2022-12-17T17:16:10.191Z,101325.69
2022-12-17T17:18:38.111Z,101334.22
2022-12-17T17:21:21.627Z,101347.00
2022-12-17T17:24:18.532Z,101356.38
2022-12-17T17:26:48.479Z,101349.56
2022-12-17T17:29:15.700Z,101350.41
2022-12-17T17:34:30.294Z,101351.25
2022-12-17T17:36:57.527Z,101350.38
2022-12-17T17:39:24.669Z,101358.91
2022-12-17T17:41:52.117Z,101358.91
2022-12-17T17:44:19.265Z,101369.16
2022-12-17T17:46:46.517Z,101369.97
2022-12-17T17:49:14.169Z,101369.97
2022-12-17T17:54:30.567Z,101390.44
2022-12-17T17:56:57.700Z,101397.25
2022-12-17T17:59:32.520Z,101400.63
2022-12-17T18:02:02.071Z,101409.19
2022-12-17T18:04:29.812Z,101416.84
2022-12-17T18:09:44.435Z,101422.03
2022-12-17T18:12:30.057Z,101426.25
2022-12-17T18:15:13.605Z,101428.84
2022-12-17T18:17:42.033Z,101437.37
2022-12-17T18:20:10.272Z,101438.19
2022-12-17T18:22:37.621Z,101445.88
2022-12-17T18:25:05.287Z,101447.59
2022-12-17T18:27:32.802Z,101452.69
2022-12-17T18:29:59.831Z,101462.94
2022-12-17T18:32:26.916Z,101461.22
2022-12-17T18:34:54.374Z,101455.28
2022-12-17T18:37:21.555Z,101464.66
2022-12-17T18:39:49.156Z,101473.13
2022-12-17T18:42:34.835Z,101473.13
2022-12-17T18:45:02.265Z,101479.09
2022-12-17T18:47:29.774Z,101491.84
2022-12-17T18:49:57.416Z,101490.03
2022-12-17T18:52:24.727Z,101495.00
2022-12-17T18:54:52.115Z,101496.69
2022-12-17T18:57:19.246Z,101505.22
2022-12-17T18:59:46.488Z,101507.84
2022-12-17T19:02:14.874Z,101510.50
2022-12-17T19:04:42.511Z,101511.34
2022-12-17T19:07:09.670Z,101525.84
2022-12-17T19:09:38.415Z,101537.69
2022-12-17T19:12:07.833Z,101540.31
2022-12-17T19:14:35.209Z,101541.94
2022-12-17T19:17:02.770Z,101545.34
2022-12-17T19:19:29.902Z,101552.06
2022-12-17T19:21:59.635Z,101558.91
2022-12-17T19:24:27.423Z,101558.87
2022-12-17T19:26:54.919Z,101570.62
2022-12-17T19:29:22.250Z,101569.69
2022-12-17T19:31:50.031Z,101564.69
2022-12-17T19:34:18.789Z,101574.88
2022-12-17T19:36:46.684Z,101562.13
2022-12-17T19:39:16.627Z,101580.16
2022-12-17T19:41:44.221Z,101579.37
2022-12-17T19:44:13.868Z,101590.53
2022-12-17T19:46:41.749Z,101583.78
2022-12-17T19:49:11.825Z,101588.91
2022-12-17T19:51:44.262Z,101587.97
2022-12-17T19:54:13.900Z,101584.59
2022-12-17T19:56:41.164Z,101578.56
2022-12-17T19:59:10.126Z,101591.34
2022-12-17T20:01:41.334Z,101587.03
2022-12-17T20:04:10.913Z,101600.63
2022-12-17T20:06:38.079Z,101606.59
2022-12-17T20:09:06.294Z,101616.81
2022-12-17T20:11:34.669Z,101607.47
2022-12-17T20:14:07.752Z,101615.06
2022-12-17T20:16:37.709Z,101609.13
2022-12-17T20:19:07.917Z,101611.69
2022-12-17T20:21:36.826Z,101624.38
2022-12-17T20:24:04.175Z,101620.09
2022-12-17T20:26:31.447Z,101624.38
2022-12-17T20:28:59.286Z,101622.59
2022-12-17T20:31:27.355Z,101622.56
2022-12-17T20:33:54.517Z,101625.94
2022-12-17T20:36:24.598Z,101632.69
2022-12-17T20:38:51.645Z,101640.31
2022-12-17T20:41:22.804Z,101647.03
2022-12-17T20:43:50.383Z,101649.56
2022-12-17T20:46:19.243Z,101646.94
2022-12-17T20:48:46.943Z,101650.37
2022-12-17T20:51:17.010Z,101659.69
2022-12-17T20:53:44.983Z,101672.44
2022-12-17T20:56:14.730Z,101669.88
2022-12-17T20:58:42.979Z,101674.06
2022-12-17T21:01:18.727Z,101689.41
2022-12-17T21:03:47.593Z,101688.53
2022-12-17T21:06:16.402Z,101692.78
2022-12-17T21:08:49.685Z,101703.84
2022-12-17T21:11:19.707Z,101699.66
2022-12-17T21:13:46.869Z,101707.31
2022-12-17T21:16:16.632Z,101712.50
2022-12-17T21:18:44.605Z,101718.37
2022-12-17T21:21:18.231Z,101718.37
2022-12-17T21:23:47.684Z,101716.66
2022-12-17T21:26:23.143Z,101733.56
2022-12-17T21:28:52.429Z,101722.50
2022-12-17T21:31:28.004Z,101729.25
2022-12-17T21:33:57.946Z,101727.56
2022-12-17T21:36:30.184Z,101727.53
2022-12-17T21:38:59.320Z,101731.75
2022-12-17T21:41:29.443Z,101729.22
2022-12-17T21:44:02.515Z,101747.12
2022-12-17T21:46:30.552Z,101741.19
2022-12-17T21:48:58.937Z,101737.78
2022-12-17T21:51:26.597Z,101749.00
2022-12-17T21:53:55.655Z,101748.16
2022-12-17T21:56:23.235Z,101763.53
2022-12-17T21:58:55.183Z,101758.44
2022-12-17T22:01:25.215Z,101765.31
2022-12-17T22:03:54.623Z,101765.22
2022-12-17T22:06:28.941Z,101777.25
2022-12-17T22:09:04.869Z,101782.41
2022-12-17T22:11:37.302Z,101784.03
2022-12-17T22:14:17.023Z,101784.03
2022-12-17T22:16:48.922Z,101790.94
2022-12-17T22:19:25.447Z,101792.63
2022-12-17T22:21:57.695Z,101802.59
2022-12-17T22:24:25.594Z,101800.13
2022-12-17T22:26:59.985Z,101802.66
2022-12-17T22:29:46.754Z,101804.31
2022-12-17T22:32:32.684Z,101806.84
2022-12-17T22:36:12.356Z,101812.03
2022-12-17T22:39:55.254Z,101818.00
2022-12-17T22:44:36.715Z,101812.94
2022-12-17T22:44:51.138Z,101811.22
2022-12-17T22:46:18.124Z,101814.66
2022-12-17T22:48:45.364Z,101825.59
2022-12-17T22:51:17.090Z,101828.22
2022-12-17T22:53:54.313Z,101830.59
2022-12-17T22:56:42.694Z,101839.09
2022-12-17T22:59:15.739Z,101843.41
2022-12-17T23:01:43.021Z,101851.75
2022-12-17T23:04:13.735Z,101850.13
2022-12-17T23:06:42.081Z,101854.47
2022-12-17T23:09:09.246Z,101865.72
2022-12-17T23:11:36.606Z,101862.41
2022-12-17T23:14:05.788Z,101866.56
2022-12-17T23:16:33.053Z,101860.47
2022-12-17T23:19:01.909Z,101873.87
2022-12-17T23:21:29.061Z,101870.47
2022-12-17T23:23:57.149Z,101865.53
2022-12-17T23:26:29.361Z,101870.63
2022-12-17T23:29:01.963Z,101872.34
2022-12-17T23:31:33.782Z,101880.66
2022-12-17T23:34:00.904Z,101882.34
2022-12-17T23:36:27.975Z,101884.91
2022-12-17T23:38:56.772Z,101892.56
2022-12-17T23:41:27.031Z,101888.00
2022-12-17T23:43:54.625Z,101892.25
2022-12-17T23:46:23.741Z,101897.41
2022-12-17T23:48:51.430Z,101902.28
2022-12-17T23:51:20.187Z,101909.06
2022-12-17T23:53:48.049Z,101919.06
2022-12-17T23:56:23.447Z,101915.53
2022-12-17T23:58:55.874Z,101915.44
